createdAt,value
2023-08-08T00:00:55.585Z,9.55
2023-08-08T00:03:22.816Z,9.57
2023-08-08T00:05:50.174Z,9.56
2023-08-08T00:08:17.280Z,9.59
2023-08-08T00:10:44.361Z,9.64
2023-08-08T00:13:11.519Z,9.59
2023-08-08T00:15:38.611Z,9.69
2023-08-08T00:18:05.911Z,9.71
2023-08-08T00:20:33.032Z,9.68
2023-08-08T00:23:00.141Z,9.71
2023-08-08T00:25:27.329Z,9.69
2023-08-08T00:27:54.443Z,9.73
2023-08-08T00:30:21.537Z,9.79
2023-08-08T00:32:48.628Z,9.79
2023-08-08T00:35:15.785Z,9.80
2023-08-08T00:37:42.877Z,9.85
2023-08-08T00:40:10.097Z,9.81
2023-08-08T00:42:37.213Z,9.78
2023-08-08T00:45:05.088Z,9.81
2023-08-08T00:47:34.022Z,9.79
2023-08-08T00:50:03.717Z,9.82
2023-08-08T00:52:31.450Z,9.84
2023-08-08T00:54:58.854Z,9.79
2023-08-08T00:57:26.323Z,9.81
2023-08-08T00:59:53.430Z,9.81
2023-08-08T01:02:20.820Z,9.80
2023-08-08T01:04:48.041Z,9.78
2023-08-08T01:07:24.281Z,9.83
2023-08-08T01:09:56.209Z,9.87
2023-08-08T01:12:24.515Z,9.85
2023-08-08T01:14:53.861Z,9.89
2023-08-08T01:17:22.149Z,9.88
2023-08-08T01:19:49.498Z,9.95
2023-08-08T01:22:23.618Z,9.95
2023-08-08T01:24:51.841Z,9.99
2023-08-08T01:27:19.091Z,10.01
2023-08-08T01:29:46.770Z,10.05
2023-08-08T01:32:15.180Z,10.02
2023-08-08T01:34:42.293Z,10.03
2023-08-08T01:37:18.492Z,10.06
2023-08-08T01:39:47.173Z,10.06
2023-08-08T01:42:15.545Z,10.10
2023-08-08T01:44:42.996Z,10.12
2023-08-08T01:47:10.176Z,10.11
2023-08-08T01:49:37.253Z,10.13
2023-08-08T01:52:04.564Z,10.16
2023-08-08T01:54:31.678Z,10.21
2023-08-08T01:56:58.815Z,10.20
2023-08-08T01:59:26.095Z,10.21
2023-08-08T02:01:53.264Z,10.22
2023-08-08T02:04:20.905Z,10.20
2023-08-08T02:06:48.032Z,10.19
2023-08-08T02:09:20.121Z,10.18
2023-08-08T02:11:48.939Z,10.18
2023-08-08T02:14:16.375Z,10.14
2023-08-08T02:16:43.687Z,10.13
2023-08-08T02:19:11.529Z,10.12
2023-08-08T02:21:38.617Z,10.11
2023-08-08T02:24:05.718Z,10.12
2023-08-08T02:26:32.866Z,10.10
2023-08-08T02:29:00.125Z,10.13
2023-08-08T02:31:27.203Z,10.12
2023-08-08T02:33:54.298Z,10.12
2023-08-08T02:36:21.492Z,10.11
2023-08-08T02:38:48.633Z,10.08
2023-08-08T02:41:15.741Z,10.05
2023-08-08T02:43:43.117Z,10.05
2023-08-08T02:46:10.273Z,10.06
2023-08-08T02:48:37.818Z,10.05
2023-08-08T02:51:04.953Z,10.01
2023-08-08T02:53:32.209Z,10.03
2023-08-08T02:55:59.312Z,10.02
2023-08-08T02:58:30.217Z,10.06
2023-08-08T03:00:59.370Z,10.08
2023-08-08T03:03:26.542Z,10.08
2023-08-08T03:05:53.592Z,10.00
2023-08-08T03:08:21.388Z,9.95
2023-08-08T03:10:48.506Z,10.01
2023-08-08T03:13:15.658Z,10.02
2023-08-08T03:15:43.103Z,10.00
2023-08-08T03:18:10.824Z,10.02
2023-08-08T03:20:37.955Z,9.99
2023-08-08T03:23:06.461Z,10.00
2023-08-08T03:25:33.565Z,9.99
2023-08-08T03:28:01.453Z,9.98
2023-08-08T03:30:28.537Z,10.00
2023-08-08T03:32:56.049Z,10.00
2023-08-08T03:35:23.193Z,10.04
2023-08-08T03:37:50.358Z,10.01
2023-08-08T03:40:17.664Z,10.00
2023-08-08T03:42:44.732Z,9.98
2023-08-08T03:45:11.940Z,9.96
2023-08-08T03:47:39.132Z,9.94
2023-08-08T03:50:06.623Z,9.96
2023-08-08T03:52:36.597Z,9.97
2023-08-08T03:55:04.133Z,10.00
2023-08-08T03:57:31.796Z,9.95
2023-08-08T03:59:58.866Z,9.92
2023-08-08T04:02:27.074Z,9.90
2023-08-08T04:04:54.203Z,9.86
2023-08-08T04:07:21.552Z,9.81
2023-08-08T04:09:49.745Z,9.84
2023-08-08T04:12:16.851Z,9.76
2023-08-08T04:14:43.959Z,9.80
2023-08-08T04:17:11.116Z,9.81
2023-08-08T04:19:38.281Z,9.75
2023-08-08T04:22:05.550Z,9.78
2023-08-08T04:24:32.638Z,9.76
2023-08-08T04:26:59.750Z,9.79
2023-08-08T04:29:26.845Z,9.70
2023-08-08T04:31:54.054Z,9.75
2023-08-08T04:34:21.177Z,9.70
2023-08-08T04:36:48.251Z,9.72
2023-08-08T04:39:15.312Z,9.70
2023-08-08T04:41:42.373Z,9.61
2023-08-08T04:44:09.452Z,9.57
2023-08-08T04:46:36.703Z,9.64
2023-08-08T04:49:03.882Z,9.63
2023-08-08T04:51:31.048Z,9.60
2023-08-08T04:53:58.165Z,9.56
2023-08-08T04:56:25.250Z,9.63
2023-08-08T04:58:52.317Z,9.66
2023-08-08T05:01:21.450Z,9.68
2023-08-08T05:03:49.447Z,9.84
2023-08-08T05:06:16.603Z,10.62
2023-08-08T05:08:44.004Z,11.64
2023-08-08T05:11:11.156Z,12.48
2023-08-08T05:13:38.216Z,12.60
2023-08-08T05:16:05.460Z,11.31
2023-08-08T05:18:32.701Z,10.95
2023-08-08T05:20:59.827Z,10.71
2023-08-08T05:23:26.933Z,10.55
2023-08-08T05:25:54.042Z,10.96
2023-08-08T05:28:21.905Z,11.28
2023-08-08T05:30:49.076Z,11.35
2023-08-08T05:33:16.292Z,11.56
2023-08-08T05:35:43.469Z,11.85
2023-08-08T05:38:10.627Z,12.11
2023-08-08T05:40:37.837Z,12.16
2023-08-08T05:43:05.043Z,12.32
2023-08-08T05:45:32.933Z,12.68
2023-08-08T05:48:01.567Z,12.84
2023-08-08T05:50:29.317Z,13.16
2023-08-08T05:52:56.609Z,13.23
2023-08-08T05:55:23.710Z,13.32
2023-08-08T05:57:50.792Z,13.49
2023-08-08T06:00:17.973Z,13.73
2023-08-08T06:02:45.144Z,13.91
2023-08-08T06:05:12.261Z,14.17
2023-08-08T06:07:40.304Z,14.39
2023-08-08T06:10:07.913Z,14.54
2023-08-08T06:12:35.095Z,14.67
2023-08-08T06:15:02.162Z,14.65
2023-08-08T06:17:29.508Z,14.90
2023-08-08T06:19:58.073Z,14.92
2023-08-08T06:22:25.346Z,15.07
2023-08-08T06:24:53.116Z,15.31
2023-08-08T06:27:20.297Z,15.50
2023-08-08T06:29:47.436Z,15.58
2023-08-08T06:32:14.503Z,15.54
2023-08-08T06:34:41.581Z,15.59
2023-08-08T06:37:08.652Z,15.66
2023-08-08T06:39:36.065Z,15.57
2023-08-08T06:42:21.543Z,15.52
2023-08-08T06:45:14.729Z,15.78
2023-08-08T06:47:41.882Z,15.95
2023-08-08T06:50:09.462Z,16.20
2023-08-08T06:52:36.547Z,16.49
2023-08-08T06:55:03.857Z,16.31
2023-08-08T06:57:34.988Z,16.56
2023-08-08T07:00:02.578Z,16.55
2023-08-08T07:02:30.967Z,16.69
2023-08-08T07:04:58.176Z,16.24
2023-08-08T07:07:25.221Z,16.73
2023-08-08T07:09:52.294Z,16.77
2023-08-08T07:12:19.475Z,16.78
2023-08-08T07:14:46.638Z,16.70
2023-08-08T07:17:13.732Z,17.01
2023-08-08T07:19:42.122Z,17.03
2023-08-08T07:22:09.832Z,16.87
2023-08-08T07:24:37.024Z,16.64
2023-08-08T07:27:04.272Z,16.32
2023-08-08T07:29:31.797Z,16.18
2023-08-08T07:31:59.121Z,16.15
2023-08-08T07:34:26.456Z,15.89
2023-08-08T07:36:53.537Z,15.87
2023-08-08T07:39:21.067Z,15.78
2023-08-08T07:41:48.182Z,15.88
2023-08-08T07:44:15.333Z,16.06
2023-08-08T07:46:42.596Z,16.23
2023-08-08T07:49:10.381Z,16.74
2023-08-08T07:51:37.487Z,16.81
2023-08-08T07:54:08.082Z,17.34
2023-08-08T07:56:36.222Z,17.52
2023-08-08T07:59:03.980Z,17.16
2023-08-08T08:01:33.080Z,17.81
2023-08-08T08:04:00.324Z,17.78
2023-08-08T08:06:27.802Z,17.75
2023-08-08T08:08:54.899Z,17.68
2023-08-08T08:11:22.081Z,18.09
2023-08-08T08:13:49.247Z,18.25
2023-08-08T08:16:16.373Z,18.18
2023-08-08T08:18:43.501Z,18.25
2023-08-08T08:21:10.631Z,18.49
2023-08-08T08:23:37.690Z,18.69
2023-08-08T08:26:04.767Z,18.69
2023-08-08T08:28:31.979Z,18.59
2023-08-08T08:31:04.734Z,19.13
2023-08-08T08:33:31.791Z,19.24
2023-08-08T08:35:58.848Z,19.50
2023-08-08T08:38:25.925Z,19.59
2023-08-08T08:40:54.991Z,19.90
2023-08-08T08:43:22.189Z,19.87
2023-08-08T08:45:51.868Z,19.99
2023-08-08T08:48:20.232Z,20.09
2023-08-08T08:50:48.786Z,19.91
2023-08-08T08:53:15.991Z,18.83
2023-08-08T08:55:44.066Z,18.89
2023-08-08T08:58:11.746Z,19.74
2023-08-08T09:00:39.896Z,20.05
2023-08-08T09:03:07.464Z,19.37
2023-08-08T09:05:34.881Z,19.19
2023-08-08T09:08:02.150Z,19.51
2023-08-08T09:10:31.865Z,19.19
2023-08-08T09:12:58.947Z,19.63
2023-08-08T09:15:26.086Z,19.72
2023-08-08T09:17:53.381Z,19.83
2023-08-08T09:20:20.455Z,19.83
2023-08-08T09:22:47.642Z,19.91
2023-08-08T09:25:15.112Z,19.30
2023-08-08T09:27:44.189Z,18.98
2023-08-08T09:30:12.165Z,19.12
2023-08-08T09:32:39.268Z,19.34
2023-08-08T09:35:10.810Z,19.53
2023-08-08T09:37:38.547Z,19.82
2023-08-08T09:40:09.429Z,19.43
2023-08-08T09:42:36.990Z,19.40
2023-08-08T09:45:04.419Z,19.55
2023-08-08T09:47:32.503Z,19.54
2023-08-08T09:50:06.050Z,19.12
2023-08-08T09:52:38.220Z,19.09
2023-08-08T09:55:05.849Z,19.19
2023-08-08T09:57:33.745Z,19.36
2023-08-08T10:00:02.131Z,19.66
2023-08-08T10:02:33.877Z,19.72
2023-08-08T10:05:02.053Z,19.62
2023-08-08T10:07:29.199Z,19.18
2023-08-08T10:09:56.742Z,19.21
2023-08-08T10:12:24.486Z,19.47
2023-08-08T10:14:51.576Z,19.58
2023-08-08T10:17:19.659Z,19.77
2023-08-08T10:19:54.414Z,19.34
2023-08-08T10:22:24.069Z,19.24
2023-08-08T10:24:55.089Z,19.24
2023-08-08T10:27:29.572Z,19.30
2023-08-08T10:30:01.602Z,19.31
2023-08-08T10:32:28.797Z,19.56
2023-08-08T10:34:58.808Z,19.57
2023-08-08T10:37:26.773Z,19.41
2023-08-08T10:39:54.859Z,19.32
2023-08-08T10:42:23.435Z,19.34
2023-08-08T10:44:57.842Z,19.52
2023-08-08T10:47:25.696Z,19.44
2023-08-08T10:50:12.297Z,19.52
2023-08-08T10:52:53.896Z,19.70
2023-08-08T10:55:25.143Z,19.65
2023-08-08T10:57:56.793Z,19.74
2023-08-08T11:00:25.679Z,19.57
2023-08-08T11:02:54.531Z,19.55
2023-08-08T11:05:22.775Z,19.69
2023-08-08T11:07:49.880Z,19.71
2023-08-08T11:10:17.251Z,19.69
2023-08-08T11:12:53.318Z,19.80
2023-08-08T11:15:20.382Z,19.92
2023-08-08T11:17:47.753Z,19.90
2023-08-08T11:20:14.906Z,19.86
2023-08-08T11:22:41.977Z,19.77
2023-08-08T11:25:09.277Z,19.77
2023-08-08T11:30:09.401Z,20.00
2023-08-08T11:32:37.793Z,19.86
2023-08-08T11:35:05.346Z,20.00
2023-08-08T11:37:32.462Z,20.11
2023-08-08T11:39:59.667Z,19.88
2023-08-08T11:42:26.903Z,19.82
2023-08-08T11:44:54.226Z,19.79
2023-08-08T11:47:25.710Z,19.82
2023-08-08T11:49:54.092Z,19.93
2023-08-08T11:52:21.435Z,20.15
2023-08-08T11:54:54.363Z,19.89
2023-08-08T11:57:21.443Z,20.14
2023-08-08T11:59:53.622Z,20.12
2023-08-08T12:02:20.727Z,20.04
2023-08-08T12:04:48.168Z,20.03
2023-08-08T12:07:15.368Z,20.13
2023-08-08T12:09:42.494Z,20.00
2023-08-08T12:12:11.001Z,19.77
2023-08-08T12:14:50.890Z,20.08
2023-08-08T12:17:24.366Z,19.96
2023-08-08T12:19:51.577Z,20.08
2023-08-08T12:22:18.694Z,20.08
2023-08-08T12:24:45.737Z,20.20
2023-08-08T12:27:12.797Z,20.08
2023-08-08T12:29:39.938Z,20.27
2023-08-08T12:32:09.048Z,20.42
2023-08-08T12:34:36.713Z,20.51
2023-08-08T12:37:03.903Z,20.34
2023-08-08T12:39:30.970Z,20.42
2023-08-08T12:41:58.197Z,20.32
2023-08-08T12:44:25.315Z,20.56
2023-08-08T12:46:52.468Z,20.23
2023-08-08T12:49:19.513Z,20.31
2023-08-08T12:51:46.607Z,20.13
2023-08-08T12:54:14.220Z,20.21
2023-08-08T12:56:41.304Z,20.20
2023-08-08T12:59:08.432Z,20.21
2023-08-08T13:01:35.536Z,20.19
2023-08-08T13:04:18.152Z,20.13
2023-08-08T13:06:46.728Z,20.17
2023-08-08T13:09:13.871Z,20.06
2023-08-08T13:11:41.017Z,20.03
2023-08-08T13:14:08.196Z,19.91
2023-08-08T13:16:35.346Z,19.90
2023-08-08T13:19:02.869Z,20.03
2023-08-08T13:21:29.900Z,20.12
2023-08-08T13:23:56.972Z,20.00
2023-08-08T13:26:24.089Z,20.18
2023-08-08T13:28:51.212Z,20.18
2023-08-08T13:31:18.370Z,20.18
2023-08-08T13:33:45.482Z,20.00
2023-08-08T13:36:12.538Z,19.94
2023-08-08T13:38:39.619Z,20.04
2023-08-08T13:41:06.730Z,20.16
2023-08-08T13:43:34.055Z,20.15
2023-08-08T13:46:01.495Z,20.17
2023-08-08T13:48:28.721Z,20.07
2023-08-08T13:50:55.882Z,20.07
2023-08-08T13:53:22.932Z,20.05
2023-08-08T13:55:50.057Z,20.12
2023-08-08T13:58:17.229Z,20.07
2023-08-08T14:00:44.304Z,19.92
2023-08-08T14:03:11.529Z,19.73
2023-08-08T14:05:38.730Z,19.60
2023-08-08T14:08:06.266Z,19.67
2023-08-08T14:10:33.318Z,19.61
2023-08-08T14:13:00.405Z,19.82
2023-08-08T14:15:27.547Z,19.58
2023-08-08T14:18:07.157Z,19.52
2023-08-08T14:20:34.749Z,19.48
2023-08-08T14:23:01.840Z,19.31
2023-08-08T14:25:30.619Z,19.20
2023-08-08T14:28:01.878Z,19.19
2023-08-08T14:30:29.324Z,19.13
2023-08-08T14:32:56.550Z,19.21
2023-08-08T14:35:23.786Z,19.11
2023-08-08T14:37:51.368Z,18.98
2023-08-08T14:40:18.512Z,18.82
2023-08-08T14:42:45.700Z,18.92
2023-08-08T14:45:12.797Z,18.97
2023-08-08T14:47:39.917Z,18.98
2023-08-08T14:50:07.393Z,19.08
2023-08-08T14:52:34.445Z,19.00
2023-08-08T14:55:01.891Z,19.02
2023-08-08T14:57:29.031Z,18.88
2023-08-08T14:59:56.086Z,18.88
2023-08-08T15:02:23.224Z,18.81
2023-08-08T15:04:50.838Z,18.71
2023-08-08T15:07:18.531Z,18.70
2023-08-08T15:09:45.697Z,18.77
2023-08-08T15:12:15.605Z,18.63
2023-08-08T15:14:42.671Z,18.41
2023-08-08T15:17:09.749Z,18.36
2023-08-08T15:19:39.032Z,18.33
2023-08-08T15:22:06.316Z,18.42
2023-08-08T15:24:35.019Z,18.44
2023-08-08T15:27:02.448Z,18.42
2023-08-08T15:29:29.824Z,18.42
2023-08-08T15:31:56.993Z,18.25
2023-08-08T15:34:24.081Z,18.32
2023-08-08T15:36:51.156Z,18.33
2023-08-08T15:39:19.746Z,18.41
2023-08-08T15:41:46.797Z,18.34
2023-08-08T15:44:13.921Z,18.39
2023-08-08T15:46:40.991Z,18.39
2023-08-08T15:49:08.136Z,18.34
2023-08-08T15:51:35.198Z,18.29
2023-08-08T15:54:02.277Z,18.26
2023-08-08T15:56:29.321Z,18.29
2023-08-08T15:58:56.448Z,18.28
2023-08-08T16:01:23.581Z,18.24
2023-08-08T16:03:50.840Z,18.23
2023-08-08T16:06:17.896Z,18.24
2023-08-08T16:08:44.978Z,18.28
2023-08-08T16:11:12.060Z,18.16
2023-08-08T16:13:39.138Z,18.19
2023-08-08T16:16:06.259Z,18.19
2023-08-08T16:18:33.483Z,18.19
2023-08-08T16:21:01.741Z,18.19
2023-08-08T16:23:28.858Z,18.20
2023-08-08T16:25:55.880Z,18.23
2023-08-08T16:28:24.613Z,18.23
2023-08-08T16:30:51.660Z,18.24
2023-08-08T16:33:19.070Z,18.30
2023-08-08T16:35:46.221Z,18.30
2023-08-08T16:38:13.330Z,18.28
2023-08-08T16:40:40.717Z,18.28
2023-08-08T16:43:08.540Z,18.27
2023-08-08T16:45:35.641Z,18.23
2023-08-08T16:48:02.757Z,18.19
2023-08-08T16:50:30.020Z,18.18
2023-08-08T16:52:57.169Z,18.19
2023-08-08T16:55:24.487Z,18.18
2023-08-08T16:57:51.949Z,18.14
2023-08-08T17:00:19.121Z,18.14
2023-08-08T17:02:46.307Z,18.16
2023-08-08T17:05:14.459Z,18.17
2023-08-08T17:07:41.528Z,18.14
2023-08-08T17:10:08.796Z,18.08
2023-08-08T17:12:35.864Z,18.06
2023-08-08T17:15:03.033Z,17.98
2023-08-08T17:17:30.177Z,17.97
2023-08-08T17:19:57.275Z,17.93
2023-08-08T17:22:24.473Z,17.92
2023-08-08T17:24:51.606Z,17.87
2023-08-08T17:27:18.725Z,17.73
2023-08-08T17:29:45.865Z,17.72
2023-08-08T17:32:14.438Z,17.64
2023-08-08T17:34:42.213Z,17.61
2023-08-08T17:37:09.305Z,17.49
2023-08-08T17:39:36.456Z,17.53
2023-08-08T17:42:03.990Z,17.50
2023-08-08T17:44:31.396Z,17.35
2023-08-08T17:46:58.620Z,17.34
2023-08-08T17:49:25.724Z,17.27
2023-08-08T17:51:52.812Z,17.19
2023-08-08T17:54:19.910Z,17.16
2023-08-08T17:56:47.046Z,17.12
2023-08-08T17:59:14.132Z,17.12
2023-08-08T18:01:41.324Z,17.10
2023-08-08T18:04:10.524Z,17.08
2023-08-08T18:06:37.918Z,17.04
2023-08-08T18:09:05.114Z,17.03
2023-08-08T18:11:39.005Z,17.01
2023-08-08T18:14:07.082Z,16.96
2023-08-08T18:16:34.970Z,16.90
2023-08-08T18:19:02.514Z,16.89
2023-08-08T18:21:31.102Z,16.84
2023-08-08T18:23:58.334Z,16.81
2023-08-08T18:26:25.568Z,16.81
2023-08-08T18:28:52.718Z,16.74
2023-08-08T18:31:19.806Z,16.72
2023-08-08T18:33:46.995Z,16.73
2023-08-08T18:36:14.526Z,16.71
2023-08-08T18:38:43.572Z,16.64
2023-08-08T18:41:11.293Z,16.59
2023-08-08T18:43:38.389Z,16.55
2023-08-08T18:46:06.019Z,16.53
2023-08-08T18:48:33.312Z,16.52
2023-08-08T18:51:01.106Z,16.51
2023-08-08T18:53:28.313Z,16.51
2023-08-08T18:55:55.466Z,16.46
2023-08-08T18:58:22.547Z,16.48
2023-08-08T19:00:50.174Z,16.42
2023-08-08T19:03:19.719Z,16.39
2023-08-08T19:05:46.858Z,16.40
2023-08-08T19:08:13.925Z,16.36
2023-08-08T19:10:40.983Z,16.31
2023-08-08T19:13:08.314Z,16.33
2023-08-08T19:15:35.548Z,16.27
2023-08-08T19:18:02.687Z,16.27
2023-08-08T19:20:29.735Z,16.18
2023-08-08T19:22:57.429Z,16.21
2023-08-08T19:25:24.657Z,16.21
2023-08-08T19:27:51.745Z,16.17
2023-08-08T19:30:18.818Z,16.18
2023-08-08T19:32:46.006Z,16.14
2023-08-08T19:35:13.328Z,16.10
2023-08-08T19:37:40.387Z,16.11
2023-08-08T19:40:08.024Z,16.00
2023-08-08T19:42:35.512Z,15.94
2023-08-08T19:45:04.399Z,15.89
2023-08-08T19:47:32.790Z,15.95
2023-08-08T19:50:00.030Z,15.94
2023-08-08T19:52:27.136Z,15.91
2023-08-08T19:54:54.336Z,15.87
2023-08-08T19:57:21.857Z,15.88
2023-08-08T19:59:50.453Z,15.86
2023-08-08T20:02:17.706Z,15.91
2023-08-08T20:04:44.806Z,15.87
2023-08-08T20:07:11.916Z,15.82
2023-08-08T20:09:38.974Z,15.80
2023-08-08T20:12:06.235Z,15.86
2023-08-08T20:14:33.837Z,15.81
2023-08-08T20:17:01.243Z,15.78
2023-08-08T20:19:28.547Z,15.79
2023-08-08T20:21:57.462Z,15.73
2023-08-08T20:24:25.149Z,15.72
2023-08-08T20:26:52.625Z,15.65
2023-08-08T20:29:19.961Z,15.66
2023-08-08T20:31:47.356Z,15.69
2023-08-08T20:34:14.683Z,15.66
2023-08-08T20:36:41.786Z,15.63
2023-08-08T20:39:09.047Z,15.56
2023-08-08T20:41:36.158Z,15.55
2023-08-08T20:44:05.420Z,15.51
2023-08-08T20:46:32.764Z,15.46
2023-08-08T20:49:00.189Z,15.37
2023-08-08T20:51:27.334Z,15.37
2023-08-08T20:53:54.636Z,15.36
2023-08-08T20:56:21.886Z,15.38
2023-08-08T20:58:49.490Z,15.41
2023-08-08T21:01:16.655Z,15.38
2023-08-08T21:03:43.836Z,15.39
2023-08-08T21:06:10.978Z,15.43
2023-08-08T21:08:38.218Z,15.40
2023-08-08T21:11:05.529Z,15.40
2023-08-08T21:13:32.653Z,15.41
2023-08-08T21:15:59.776Z,15.29
2023-08-08T21:18:26.992Z,15.35
2023-08-08T21:20:54.948Z,15.32
2023-08-08T21:23:22.020Z,15.30
2023-08-08T21:25:49.112Z,15.28
2023-08-08T21:28:16.170Z,15.22
2023-08-08T21:30:43.281Z,15.25
2023-08-08T21:33:10.397Z,15.17
2023-08-08T21:35:37.443Z,15.22
2023-08-08T21:38:04.591Z,15.15
2023-08-08T21:40:31.689Z,15.04
2023-08-08T21:42:58.756Z,15.06
2023-08-08T21:45:25.836Z,15.10
2023-08-08T21:47:53.033Z,15.04
2023-08-08T21:50:20.152Z,14.98
2023-08-08T21:52:47.242Z,15.01
2023-08-08T21:55:14.484Z,14.94
2023-08-08T21:57:41.550Z,14.94
2023-08-08T22:00:14.137Z,14.91
2023-08-08T22:02:42.951Z,14.97
2023-08-08T22:05:10.070Z,14.87
2023-08-08T22:07:37.160Z,14.86
2023-08-08T22:10:04.778Z,14.85
2023-08-08T22:12:32.276Z,14.85
2023-08-08T22:14:59.407Z,14.85
2023-08-08T22:17:26.565Z,14.83
2023-08-08T22:19:54.071Z,14.78
2023-08-08T22:22:21.299Z,14.72
2023-08-08T22:24:48.483Z,14.69
2023-08-08T22:27:15.955Z,14.70
2023-08-08T22:29:43.265Z,14.70
2023-08-08T22:32:10.402Z,14.70
2023-08-08T22:34:37.472Z,14.66
2023-08-08T22:37:04.633Z,14.65
2023-08-08T22:39:31.722Z,14.66
2023-08-08T22:41:58.758Z,14.68
2023-08-08T22:44:25.828Z,14.61
2023-08-08T22:46:53.384Z,14.63
2023-08-08T22:49:20.468Z,14.56
2023-08-08T22:51:47.554Z,14.57
2023-08-08T22:54:15.793Z,14.56
2023-08-08T22:56:43.037Z,14.56
2023-08-08T22:59:10.147Z,14.57
2023-08-08T23:01:37.216Z,14.54
2023-08-08T23:04:04.465Z,14.55
2023-08-08T23:06:31.501Z,14.52
2023-08-08T23:08:58.546Z,14.48
2023-08-08T23:11:25.608Z,14.45
2023-08-08T23:13:52.721Z,14.49
2023-08-08T23:16:19.819Z,14.46
2023-08-08T23:18:46.922Z,14.45
2023-08-08T23:21:14.406Z,14.44
2023-08-08T23:23:41.532Z,14.49
2023-08-08T23:26:08.828Z,14.48
2023-08-08T23:28:35.919Z,14.46
2023-08-08T23:31:03.043Z,14.47
2023-08-08T23:33:30.136Z,14.48
2023-08-08T23:35:57.361Z,14.44
2023-08-08T23:38:24.516Z,14.41
2023-08-08T23:40:51.596Z,14.46
2023-08-08T23:43:18.740Z,14.50
2023-08-08T23:45:46.258Z,14.53
2023-08-08T23:48:13.370Z,14.51
2023-08-08T23:50:40.420Z,14.50
2023-08-08T23:53:08.012Z,14.56
2023-08-08T23:55:35.152Z,14.52
2023-08-08T23:58:02.198Z,14.53
